ケアンズ の空港の天気 - METARとTAF

ケアンズ国際空港 ( YBCS / CNS ) - オーストラリア クイーンズランド州ケアンズ
飛行場実況気象(Metar)
観測時間01/23 10:00 AEST (01/23 00:00 UTC)
風向・風速北東 3m/s
視程10km以上
天気現象
全天の4割程度の雲 雲底高度 850m
気温32℃
湿度67%
気圧1010hPa
METARYBCS 230000Z AUTO 05006KT 9999 // SCT028 32/25 Q1010 RF00.0/000.0 NOSIG
過去の天気等 Google飛行場航空写真 Wunderground天気予報

過去48時間のMETAR

飛行場予報(TAF)
発表時間: 1/23 07:33 AEST (1/22 21:33 UTC)
予報対象時間: 23日7時 AEST ~ 24日10時 AEST
風向・風速東北東 5m/s
視程10km以上
少しの雲 雲底高度 910m
全天の4割程度の雲 雲底高度 1520m
23日19時 AEST から
風向・風速不定 2m/s
視程10km以上
天気現象弱いしゅう雨
全天の4割程度の雲 雲底高度 610m
全天の4割程度の雲 雲底高度 1070m
23日21時 AEST ~ 24日4時 AEST に 確率 30% で一時的に
風向・風速不定 10m/s 瞬間風速 18m/s
視程1000m
天気現象雷雨
全天の8割程度の雲 雲底高度 460m
全天の4割程度の積乱雲 雲底高度 760m
TAF AMD YBCS 222133Z 2221/2400 06010KT 9999 FEW030 SCT050
FM230900 VRB03KT 9999 -SHRA SCT020 SCT035 INTER 2310/2318 3000 SHRA BKN018
PROB30 TEMPO 2311/2318 VRB20G35KT 1000 TSRA BKN015 SCT025CB